TENO2: Tenkiller Lake

Data processed at Thu Nov 08 2018 23:32


All information presented herein is the property of the government of the United States of America and may be revised or deleted at any time without prior notice.
Dissemination of this information without the expressed written consent of the Public Affairs Office, Tulsa District U.S. Army Corps of Engineers is strictly prohibited.
These data are gathered electronically and, as presented, have not undergone any form of quality control. These data are not guaranteed to be valid or correct.
Go to home page.
Go to station list.
Go to home page.

Upstream stations:

Downstream station:
Previous Day
Next Day
Current Day
    
SHEF ID:       TENO2     Tenkiller Lake
STATION TYPE:  Reservoir
Normal Pool:  Bottom =   594.50, Top =   632.00

               PRECIP PRECIP(A) ELEVATION   STORAGE   TW-ELEV    INFLOW   RELEASE  AIR-TEMP  WIND-DIRWIND-SPEED REL-HUMID SOLAR-RAD   VOLTAGE  BAT-LOAD
                   in        in        ft     ac-ft        ft       cfs       cfs         F       deg       mph         %      W/m2      volt      volt
              Ccp-Rev   Ccp-Rev   Ccp-Rev   Ccp-Rev   Ccp-Rev  Regi-Rev  Regi-Rev   Ccp-Rev   Ccp-Rev   Ccp-Rev   Ccp-Rev   Ccp-Rev   Ccp-Rev   Ccp-Rev
(US/Central)
11/08 00:00      0.00      ----    629.58    637534    481.88        12        40     55.17    202.60      3.70     28.44      0.00     13.63     12.90
11/08 01:00      0.00      ----    629.60    637782    481.88        12        40     54.27    188.40      3.80     28.40      0.00     13.63     12.90
11/08 02:00      0.00      ----    629.60    637782    481.88        12        40     53.24    176.60      3.80     28.09      0.00     13.63     12.90
11/08 03:00      0.00      ----    629.61    637906    481.88         8        40     52.74    162.80      3.40     28.16      0.00     13.63     12.90
11/08 04:00      0.00      ----    629.61    637906    481.88         0        40     52.36    168.80      2.60     24.45      0.00     13.63     12.89
11/08 05:00      0.00      ----    629.60    637782    481.88         0        40     51.93    155.60      3.30     29.41      0.00     13.63     12.89
11/08 06:00      0.00      ----    629.60    637782    482.14         0       303     51.58    171.20      2.90     26.10      0.00     13.63     12.90
11/08 07:00      0.00      ----    629.59    637658    486.91         0      1797     51.30    155.20      3.00     30.13      0.00     13.63     12.90
11/08 08:00      0.00      ----    629.58    637534    487.00         0      1898     50.86    161.30      3.20     30.66     11.40     13.63     12.86
11/08 09:00      0.00      ----    629.57    637410    482.47         0       303     51.48    117.60      3.70     26.05     78.90     13.63     12.90
11/08 10:00      0.00      ----    629.57    637410    482.00         4        40     52.74     91.60      5.20     28.65    120.30     13.63     12.91
11/08 11:00      0.00      ----    629.57    637410    481.92         8        40     53.33     92.10      4.60     22.60    104.70     13.63     12.88
11/08 12:00      0.00      ----    629.58    637534    481.95         8        40     53.19     95.30      4.00     24.49     67.40     13.63     12.90
11/08 13:00      0.00      ----    629.59    637658    481.90         8        40     53.37    105.90      5.10     24.48     55.10     13.63     12.90
11/08 14:00      0.00      ----    629.60    637782    481.88         8        40     53.37    106.90      3.40     24.39     48.30     13.63     12.90
11/08 15:00      0.00      ----    629.60    637782    481.88         4        40     52.48    182.40      2.40     32.38     34.70     13.63     12.89
11/08 16:00      0.00      ----    629.60    637782    481.88         0        40     49.12    198.80      3.30     49.93      8.50     13.63     12.90
11/08 17:00      0.00      ----    629.62    638030    482.10         0        40     47.41    214.20      3.60     51.81      0.00     13.63     12.90
11/08 18:00      0.01      ----    629.58    637534    486.93         0        40     45.48    206.50      4.20     47.69      0.00     13.63     12.89
11/08 19:00      0.02      ----    629.59    637658    487.07         0        40     43.66    188.60      4.50     54.97      0.00     13.63     12.90
11/08 20:00      0.01      ----    629.56    637287    487.01         0        40     43.66    200.70      3.70     59.71      0.00     13.63     12.90
11/08 21:00      0.00      ----    629.54    637039    487.11         0        40     43.65    187.60      3.80     59.02      0.00     13.63     12.90
11/08 22:00      0.00      ----    629.53    636915    482.50         0        40     43.79    214.00      3.90     61.60      0.00     13.63     12.88
11/08 23:00      ----      ----      ----      ----      ----      -901      -901     42.84    203.10      3.70     50.98      0.00     13.63     12.90